Yarnell, Arizona
Current Conditions -  °F | °C
As of 1:53 PM on Tuesday 25 Nov 2014 (Local Time) from KPRC Reporting Station
Clear Clear  
Wind Chill: 58°   Ceiling: Unl
Heat Index: 58°   Visibility: 10mi
Dew Point: -6°   Wind: 5mph
Humidity: 7%   Direction: 330°NNW
Pressure: 30.38"   Gusts: NA
Location:  34.22°N, 112.75°W
Report Text: KPRC 252053Z 33004KT 10SM CLR 14/M21 A3038 RMK AO2 SLP267 T01441211 58033
Loading
Personal Weather Stations






























Interactive Weather Map New forecast layout! Learn more

10-Day Weather Forecast

Advertisements
Track Severe Weather on mobile